createdAt,value
2019-03-02T00:01:49.565Z,21
2019-03-02T00:06:51.583Z,27
2019-03-02T00:11:56.432Z,25
2019-03-02T00:16:56.502Z,27
2019-03-02T00:21:59.993Z,17
2019-03-02T00:27:01.486Z,17
2019-03-02T00:32:05.773Z,21
2019-03-02T00:37:06.364Z,22
2019-03-02T00:42:08.831Z,21
2019-03-02T00:47:11.311Z,22
2019-03-02T00:52:13.758Z,24
2019-03-02T00:57:18.594Z,29
2019-03-02T01:02:18.694Z,19
2019-03-02T01:07:23.584Z,30
2019-03-02T01:12:23.626Z,25
2019-03-02T01:17:26.820Z,24
2019-03-02T01:22:28.526Z,27
2019-03-02T01:27:31.661Z,29
2019-03-02T01:32:33.450Z,31
2019-03-02T01:37:35.915Z,27
2019-03-02T01:42:38.395Z,27
2019-03-02T01:47:40.876Z,30
2019-03-02T01:52:43.337Z,24
2019-03-02T01:57:48.731Z,27
2019-03-02T02:02:48.263Z,33
2019-03-02T02:07:54.027Z,32
2019-03-02T02:12:53.167Z,32
2019-03-02T02:17:55.642Z,36
2019-03-02T02:22:58.097Z,34
2019-03-02T02:28:00.561Z,36
2019-03-02T02:33:05.421Z,35
2019-03-02T02:38:05.509Z,35
2019-03-02T02:43:07.953Z,34
2019-03-02T02:48:10.406Z,39
2019-03-02T02:53:12.883Z,40
2019-03-02T02:58:17.430Z,37
2019-03-02T03:03:20.671Z,42
2019-03-02T03:08:20.290Z,39
2019-03-02T03:13:22.722Z,38
2019-03-02T03:18:25.336Z,42
2019-03-02T03:23:27.718Z,41
2019-03-02T03:28:32.153Z,33
2019-03-02T03:33:41.253Z,38
2019-03-02T03:38:35.071Z,43
2019-03-02T03:43:42.395Z,43
2019-03-02T03:48:39.980Z,42
2019-03-02T03:53:42.454Z,43
2019-03-02T03:58:44.992Z,40
2019-03-02T04:03:51.604Z,51
2019-03-02T04:08:49.931Z,48
2019-03-02T04:13:52.312Z,55
2019-03-02T04:18:56.979Z,42
2019-03-02T04:24:01.102Z,39
2019-03-02T04:28:59.705Z,36
2019-03-02T04:34:02.211Z,34
2019-03-02T04:39:04.636Z,42
2019-03-02T04:44:07.096Z,37
2019-03-02T04:49:10.812Z,29
2019-03-02T04:54:12.027Z,33
2019-03-02T04:59:14.495Z,35
2019-03-02T05:04:17.054Z,31
2019-03-02T05:09:19.426Z,34
2019-03-02T05:14:21.935Z,26
2019-03-02T05:19:29.917Z,34
2019-03-02T05:24:26.863Z,27
2019-03-02T05:29:29.297Z,27
2019-03-02T05:34:31.730Z,24
2019-03-02T05:39:34.207Z,26
2019-03-02T05:44:36.669Z,24
2019-03-02T05:49:39.197Z,23
2019-03-02T05:54:42.360Z,25
2019-03-02T05:59:44.067Z,25
2019-03-02T06:04:46.512Z,24
2019-03-02T06:09:50.099Z,27
2019-03-02T06:14:51.461Z,23
2019-03-02T06:19:55.710Z,27
2019-03-02T06:24:56.366Z,33
2019-03-02T06:29:58.844Z,29
2019-03-02T06:35:01.357Z,28
2019-03-02T06:40:03.857Z,29
2019-03-02T06:45:08.895Z,25
2019-03-02T06:50:08.725Z,30
2019-03-02T06:55:11.182Z,29
2019-03-02T07:00:13.911Z,31
2019-03-02T07:05:16.098Z,32
2019-03-02T07:10:21.540Z,30
2019-03-02T07:15:21.083Z,31
2019-03-02T07:20:23.776Z,31
2019-03-02T07:25:25.953Z,35
2019-03-02T07:30:28.432Z,33
2019-03-02T07:35:30.911Z,30
2019-03-02T07:40:33.383Z,27
2019-03-02T07:45:36.666Z,22
2019-03-02T07:50:38.301Z,29
2019-03-02T07:55:40.851Z,24
2019-03-02T08:00:43.231Z,21
2019-03-02T08:05:46.824Z,19
2019-03-02T08:10:48.144Z,23
2019-03-02T08:15:50.613Z,22
2019-03-02T08:20:53.816Z,19
2019-03-02T08:36:00.501Z,14
2019-03-02T08:41:02.951Z,15
2019-03-02T08:46:07.365Z,19
2019-03-02T08:51:07.877Z,16
2019-03-02T08:56:12.001Z,19
2019-03-02T09:01:15.288Z,14
2019-03-02T09:06:15.262Z,18
2019-03-02T09:11:17.725Z,15
2019-03-02T09:16:20.211Z,25
2019-03-02T09:21:22.647Z,16
2019-03-02T09:26:25.161Z,17
2019-03-02T09:31:27.619Z,16
2019-03-02T09:36:31.147Z,16
2019-03-02T09:41:32.608Z,12
2019-03-02T09:46:34.977Z,14
2019-03-02T09:51:37.431Z,15
2019-03-02T09:56:39.887Z,15
2019-03-02T10:01:42.337Z,15
2019-03-02T10:06:44.919Z,17
2019-03-02T10:11:47.304Z,15
2019-03-02T10:21:52.193Z,15
2019-03-02T10:26:54.641Z,15
2019-03-02T10:31:57.147Z,15
2019-03-02T10:36:59.580Z,15
2019-03-02T10:42:02.076Z,13
2019-03-02T10:47:04.473Z,11
2019-03-02T10:52:09.598Z,12
2019-03-02T10:57:09.410Z,10
2019-03-02T11:02:11.850Z,11
2019-03-02T11:07:14.327Z,11
2019-03-02T11:12:17.507Z,11
2019-03-02T11:17:19.647Z,14
2019-03-02T11:22:21.740Z,13
2019-03-02T11:27:24.186Z,12
2019-03-02T11:32:26.621Z,13
2019-03-02T11:37:29.055Z,13
2019-03-02T11:42:31.582Z,18
2019-03-02T11:47:36.538Z,14
2019-03-02T11:52:38.533Z,11
2019-03-02T11:57:38.892Z,13
2019-03-02T12:02:41.346Z,13
2019-03-02T12:07:45.383Z,14
2019-03-02T12:12:46.351Z,14
2019-03-02T12:17:48.723Z,11
2019-03-02T12:22:51.188Z,13
2019-03-02T12:27:54.944Z,11
2019-03-02T12:32:56.074Z,11
2019-03-02T12:37:58.557Z,11
2019-03-02T12:43:04.008Z,10
2019-03-02T12:48:03.504Z,12
2019-03-02T12:53:05.913Z,12
2019-03-02T12:58:08.398Z,9
2019-03-02T13:03:10.831Z,13
2019-03-02T13:08:15.218Z,10
2019-03-02T13:13:16.861Z,11
2019-03-02T13:18:18.211Z,12
2019-03-02T13:23:20.753Z,11
2019-03-02T13:28:23.101Z,16
2019-03-02T13:33:25.561Z,13
2019-03-02T13:38:29.900Z,21
2019-03-02T13:43:30.515Z,11
2019-03-02T13:48:33.050Z,12
2019-03-02T13:53:35.437Z,12
2019-03-02T13:58:37.848Z,12
2019-03-02T14:03:40.321Z,10
2019-03-02T14:08:43.336Z,12
2019-03-02T14:13:45.231Z,15
2019-03-02T14:18:47.705Z,11
2019-03-02T14:23:50.142Z,14
2019-03-02T14:28:52.637Z,23
2019-03-02T14:33:55.061Z,12
2019-03-02T14:39:01.261Z,11
2019-03-02T14:44:00.011Z,13
2019-03-02T14:49:02.509Z,14
2019-03-02T14:54:04.959Z,18
2019-03-02T15:04:09.821Z,14
2019-03-02T15:09:12.509Z,15
2019-03-02T15:14:14.736Z,15
2019-03-02T15:19:17.181Z,17
2019-03-02T15:24:20.502Z,14
2019-03-02T15:29:22.089Z,14
2019-03-02T15:34:24.570Z,13
2019-03-02T15:39:27.032Z,15
2019-03-02T15:44:29.474Z,14
2019-03-02T15:49:31.991Z,17
2019-03-02T15:54:34.397Z,19
2019-03-02T15:59:37.266Z,18
2019-03-02T16:04:39.316Z,16
2019-03-02T16:09:41.870Z,22
2019-03-02T16:14:44.197Z,18
2019-03-02T16:19:46.712Z,19
2019-03-02T16:24:49.160Z,17
2019-03-02T16:29:52.633Z,25
2019-03-02T16:34:54.054Z,16
2019-03-02T16:39:56.503Z,21
2019-03-02T16:44:59.047Z,17
2019-03-02T16:50:06.404Z,21
2019-03-02T16:55:05.951Z,20
2019-03-02T17:00:08.786Z,19
2019-03-02T17:05:08.822Z,22
2019-03-02T17:10:11.303Z,22
2019-03-02T17:15:13.849Z,23
2019-03-02T17:20:16.209Z,24
2019-03-02T17:25:18.704Z,29
2019-03-02T17:30:21.295Z,24
2019-03-02T17:35:25.419Z,28
2019-03-02T17:40:25.990Z,30
2019-03-02T17:45:31.834Z,28
2019-03-02T17:50:30.920Z,31
2019-03-02T17:55:33.419Z,28
2019-03-02T18:00:35.935Z,30
2019-03-02T18:05:39.543Z,34
2019-03-02T18:10:40.795Z,28
2019-03-02T18:15:43.188Z,29
2019-03-02T18:20:45.786Z,31
2019-03-02T18:25:48.497Z,34
2019-03-02T18:30:50.548Z,36
2019-03-02T18:35:53.552Z,37
2019-03-02T18:40:55.478Z,35
2019-03-02T18:45:57.937Z,39
2019-03-02T18:51:03.716Z,60
2019-03-02T18:56:02.903Z,43
2019-03-02T19:01:05.294Z,50
2019-03-02T19:06:07.757Z,49
2019-03-02T19:11:10.223Z,44
2019-03-02T19:16:12.683Z,36
2019-03-02T19:21:15.132Z,41
2019-03-02T19:26:17.605Z,37
2019-03-02T19:31:21.261Z,34
2019-03-02T19:36:22.493Z,34
2019-03-02T19:41:24.966Z,30
2019-03-02T19:46:27.417Z,42
2019-03-02T19:51:29.926Z,32
2019-03-02T19:56:32.421Z,37
2019-03-02T20:01:34.838Z,31
2019-03-02T20:06:37.245Z,32
2019-03-02T20:11:39.719Z,34
2019-03-02T20:16:42.190Z,39
2019-03-02T20:21:44.612Z,32
2019-03-02T20:26:47.091Z,35
2019-03-02T20:31:49.545Z,31
2019-03-02T20:36:52.081Z,37
2019-03-02T20:41:54.628Z,37
2019-03-02T20:46:56.910Z,38
2019-03-02T20:51:59.366Z,31
2019-03-02T20:57:01.870Z,36
2019-03-02T21:02:04.294Z,35
2019-03-02T21:07:06.721Z,35
2019-03-02T21:12:09.223Z,41
2019-03-02T21:17:11.647Z,35
2019-03-02T21:22:14.129Z,38
2019-03-02T21:27:16.558Z,34
2019-03-02T21:32:19.046Z,35
2019-03-02T21:37:21.506Z,38
2019-03-02T21:42:23.930Z,39
2019-03-02T21:47:26.386Z,35
2019-03-02T21:52:28.870Z,34
2019-03-02T21:57:31.417Z,31
2019-03-02T22:02:33.774Z,35
2019-03-02T22:07:36.362Z,35
2019-03-02T22:12:38.752Z,39
2019-03-02T22:17:41.255Z,35
2019-03-02T22:22:43.594Z,31
2019-03-02T22:27:46.124Z,34
2019-03-02T22:32:48.500Z,31
2019-03-02T22:37:50.951Z,23
2019-03-02T22:42:53.449Z,26
2019-03-02T22:47:55.868Z,28
2019-03-02T22:52:58.325Z,28
2019-03-02T22:58:00.827Z,24
2019-03-02T23:03:03.241Z,26
2019-03-02T23:08:05.744Z,22
2019-03-02T23:13:08.167Z,27
2019-03-02T23:18:10.954Z,25
2019-03-02T23:23:13.081Z,20
2019-03-02T23:28:15.616Z,20
2019-03-02T23:33:17.989Z,26
2019-03-02T23:38:20.446Z,21
2019-03-02T23:43:22.910Z,23
2019-03-02T23:48:25.399Z,27
2019-03-02T23:53:27.841Z,20
2019-03-02T23:58:30.599Z,17
